createdAt,value
2018-03-31T00:00:36.481Z,22.30
2018-03-31T00:03:03.523Z,21.77
2018-03-31T00:05:30.588Z,24.10
2018-03-31T00:07:58.517Z,23.63
2018-03-31T00:10:26.349Z,21.53
2018-03-31T00:12:53.646Z,23.30
2018-03-31T00:15:22.064Z,24.37
2018-03-31T00:17:49.121Z,23.27
2018-03-31T00:20:16.197Z,22.97
2018-03-31T00:22:44.017Z,22.67
2018-03-31T00:25:11.086Z,21.30
2018-03-31T00:27:38.133Z,19.77
2018-03-31T00:30:05.215Z,23.33
2018-03-31T00:32:33.028Z,22.43
2018-03-31T00:35:00.128Z,23.30
2018-03-31T00:37:27.925Z,23.43
2018-03-31T00:39:54.977Z,25.00
2018-03-31T00:42:22.021Z,23.53
2018-03-31T00:44:49.086Z,20.30
2018-03-31T00:47:16.139Z,23.27
2018-03-31T00:49:43.206Z,23.00
2018-03-31T00:52:10.246Z,23.07
2018-03-31T00:54:37.670Z,22.50
2018-03-31T00:57:04.709Z,23.30
2018-03-31T00:59:31.936Z,23.40
2018-03-31T01:01:59.013Z,22.43
2018-03-31T01:04:26.054Z,22.00
2018-03-31T01:06:53.125Z,20.67
2018-03-31T01:09:20.168Z,23.00
2018-03-31T01:11:47.250Z,22.37
2018-03-31T01:14:14.294Z,25.07
2018-03-31T01:16:41.361Z,24.43
2018-03-31T01:19:09.193Z,22.53
2018-03-31T01:21:36.277Z,24.10
2018-03-31T01:24:04.152Z,21.27
2018-03-31T01:26:31.191Z,23.70
2018-03-31T01:28:59.001Z,22.83
2018-03-31T01:31:27.489Z,23.40
2018-03-31T01:33:54.544Z,23.33
2018-03-31T01:36:21.652Z,23.00
2018-03-31T01:38:48.711Z,24.33
2018-03-31T01:41:16.000Z,23.57
2018-03-31T01:43:43.050Z,23.80
2018-03-31T01:46:10.120Z,22.50
2018-03-31T01:48:37.294Z,24.77
2018-03-31T01:51:05.146Z,24.03
2018-03-31T01:53:33.005Z,24.57
2018-03-31T01:56:00.115Z,25.23
2018-03-31T01:58:27.161Z,26.57
2018-03-31T02:00:54.207Z,24.90
2018-03-31T02:03:21.274Z,23.90
2018-03-31T02:05:48.324Z,22.90
2018-03-31T02:08:15.390Z,24.23
2018-03-31T02:10:42.441Z,24.50
2018-03-31T02:13:09.522Z,26.20
2018-03-31T02:15:36.556Z,24.00
2018-03-31T02:18:03.704Z,24.03
2018-03-31T02:20:31.506Z,23.90
2018-03-31T02:22:58.571Z,25.10
2018-03-31T02:25:25.608Z,25.30
2018-03-31T02:27:52.674Z,25.70
2018-03-31T02:30:19.957Z,25.20
2018-03-31T02:32:47.786Z,24.33
2018-03-31T02:35:14.830Z,25.03
2018-03-31T02:37:41.914Z,24.80
2018-03-31T02:40:09.731Z,24.80
2018-03-31T02:42:36.789Z,24.23
2018-03-31T02:45:03.834Z,25.33
2018-03-31T02:47:30.903Z,23.27
2018-03-31T02:49:57.953Z,25.10
2018-03-31T02:52:25.067Z,24.03
2018-03-31T02:54:52.117Z,25.97
2018-03-31T02:57:19.161Z,25.77
2018-03-31T02:59:46.222Z,25.70
2018-03-31T03:02:13.269Z,25.80
2018-03-31T03:04:40.341Z,25.90
2018-03-31T03:07:09.976Z,27.17
2018-03-31T03:09:37.818Z,27.57
2018-03-31T03:12:04.858Z,26.50
2018-03-31T03:14:32.089Z,25.87
2018-03-31T03:16:59.142Z,26.70
2018-03-31T03:19:26.210Z,26.57
2018-03-31T03:21:53.252Z,25.73
2018-03-31T03:24:20.344Z,26.17
2018-03-31T03:26:47.694Z,28.10
2018-03-31T03:29:14.762Z,27.13
2018-03-31T03:31:42.657Z,24.30
2018-03-31T03:34:09.737Z,26.50
2018-03-31T03:36:37.537Z,23.00
2018-03-31T03:39:04.605Z,20.40
2018-03-31T03:41:31.645Z,23.97
2018-03-31T03:43:58.713Z,28.33
2018-03-31T03:46:25.753Z,26.70
2018-03-31T03:48:52.829Z,28.27
2018-03-31T03:51:19.868Z,26.70
2018-03-31T03:53:46.914Z,27.60
2018-03-31T03:56:13.983Z,25.03
2018-03-31T03:58:41.793Z,27.23
2018-03-31T04:01:08.870Z,27.30
2018-03-31T04:03:35.908Z,28.53
2018-03-31T04:06:02.974Z,29.23
2018-03-31T04:08:30.033Z,27.60
2018-03-31T04:10:57.980Z,27.87
2018-03-31T04:13:25.010Z,26.00
2018-03-31T04:15:54.197Z,26.50
2018-03-31T04:18:21.243Z,25.90
2018-03-31T04:20:48.305Z,29.00
2018-03-31T04:23:15.402Z,24.80
2018-03-31T04:25:43.244Z,26.80
2018-03-31T04:28:10.326Z,29.30
2018-03-31T04:30:38.179Z,27.87
2018-03-31T04:33:05.989Z,27.30
2018-03-31T04:35:33.066Z,27.10
2018-03-31T04:38:00.128Z,28.93
2018-03-31T04:40:27.182Z,28.63
2018-03-31T04:42:54.239Z,29.83
2018-03-31T04:45:22.093Z,26.40
2018-03-31T04:47:49.984Z,28.10
2018-03-31T04:50:17.836Z,29.93
2018-03-31T04:52:45.651Z,28.23
2018-03-31T04:55:12.719Z,28.77
2018-03-31T04:57:39.772Z,28.20
2018-03-31T05:00:06.830Z,29.57
2018-03-31T05:02:33.972Z,29.47
2018-03-31T05:05:01.017Z,27.57
2018-03-31T05:07:28.090Z,28.80
2018-03-31T05:09:55.183Z,28.73
2018-03-31T05:12:22.245Z,29.50
2018-03-31T05:14:49.428Z,29.00
2018-03-31T05:17:18.013Z,29.50
2018-03-31T05:19:45.828Z,30.83
2018-03-31T05:22:12.880Z,29.97
2018-03-31T05:24:39.925Z,27.80
2018-03-31T05:27:06.981Z,28.90
2018-03-31T05:29:34.058Z,30.00
2018-03-31T05:32:01.142Z,30.80
2018-03-31T05:34:28.190Z,25.60
2018-03-31T05:36:55.255Z,27.73
2018-03-31T05:39:22.292Z,31.03
2018-03-31T05:41:49.404Z,29.53
2018-03-31T05:44:16.456Z,30.97
2018-03-31T05:46:43.523Z,30.00
2018-03-31T05:49:10.590Z,32.07
2018-03-31T05:51:37.670Z,28.07
2018-03-31T05:54:04.745Z,29.60
2018-03-31T05:56:31.785Z,30.53
2018-03-31T05:58:58.858Z,28.93
2018-03-31T06:01:26.670Z,29.70
2018-03-31T06:03:53.748Z,29.80
2018-03-31T06:06:20.777Z,30.27
2018-03-31T06:08:47.834Z,32.60
2018-03-31T06:11:14.890Z,30.70
2018-03-31T06:13:41.964Z,30.50
2018-03-31T06:16:09.770Z,32.57
2018-03-31T06:18:36.872Z,31.23
2018-03-31T06:21:04.729Z,32.00
2018-03-31T06:23:31.781Z,33.37
2018-03-31T06:25:59.585Z,29.93
2018-03-31T06:28:26.665Z,30.13
2018-03-31T06:30:53.853Z,27.63
2018-03-31T06:33:20.932Z,33.43
2018-03-31T06:35:47.969Z,32.50
2018-03-31T06:38:15.034Z,33.53
2018-03-31T06:40:42.200Z,29.27
2018-03-31T06:43:09.259Z,33.27
2018-03-31T06:45:36.334Z,35.10
2018-03-31T06:48:03.389Z,33.07
2018-03-31T06:50:30.450Z,34.97
2018-03-31T06:52:57.495Z,31.67
2018-03-31T06:55:24.561Z,32.80
2018-03-31T06:57:51.618Z,33.50
2018-03-31T07:00:18.696Z,34.53
2018-03-31T07:02:45.738Z,33.77
2018-03-31T07:05:12.815Z,35.70
2018-03-31T07:07:40.202Z,34.53
2018-03-31T07:10:07.320Z,34.57
2018-03-31T07:12:35.133Z,34.30
2018-03-31T07:15:02.209Z,35.70
2018-03-31T07:17:29.259Z,34.53
2018-03-31T07:19:56.337Z,34.30
2018-03-31T07:22:24.157Z,33.50
2018-03-31T07:24:51.217Z,35.30
2018-03-31T07:27:18.265Z,35.63
2018-03-31T07:29:45.338Z,33.53
2018-03-31T07:32:13.207Z,35.50
2018-03-31T07:34:40.234Z,35.97
2018-03-31T07:37:07.344Z,35.50
2018-03-31T07:39:34.555Z,33.40
2018-03-31T07:42:02.400Z,33.73
2018-03-31T07:44:29.460Z,36.00
2018-03-31T07:46:57.683Z,34.47
2018-03-31T07:49:24.726Z,33.77
2018-03-31T07:51:51.821Z,36.13
2018-03-31T07:54:18.894Z,36.53
2018-03-31T07:56:46.750Z,33.40
2018-03-31T07:59:14.565Z,33.67
2018-03-31T08:01:41.869Z,35.90
2018-03-31T08:04:09.681Z,36.10
2018-03-31T08:06:36.764Z,34.60
2018-03-31T08:09:03.822Z,34.40
2018-03-31T08:11:30.909Z,35.03
2018-03-31T08:13:57.977Z,35.30
2018-03-31T08:16:25.042Z,35.93
2018-03-31T08:18:52.088Z,36.57
2018-03-31T08:21:19.160Z,36.00
2018-03-31T08:23:46.662Z,32.90
2018-03-31T08:26:14.585Z,34.63
2018-03-31T08:28:41.650Z,35.23
2018-03-31T08:31:09.475Z,34.90
2018-03-31T08:33:36.553Z,34.07
2018-03-31T08:36:04.369Z,34.77
2018-03-31T08:38:31.444Z,32.93
2018-03-31T08:40:58.493Z,32.27
2018-03-31T08:43:25.704Z,37.53
2018-03-31T08:45:52.756Z,37.90
2018-03-31T08:48:19.788Z,36.17
2018-03-31T08:50:46.862Z,33.53
2018-03-31T08:53:13.945Z,35.47
2018-03-31T08:55:40.989Z,35.70
2018-03-31T08:58:08.069Z,35.53
2018-03-31T09:00:35.908Z,33.83
2018-03-31T09:03:02.989Z,35.93
2018-03-31T09:05:30.878Z,35.90
2018-03-31T09:07:57.967Z,34.93
2018-03-31T09:10:25.015Z,37.00
2018-03-31T09:12:52.216Z,36.60
2018-03-31T09:15:19.264Z,36.03
2018-03-31T09:17:46.325Z,36.60
2018-03-31T09:20:13.373Z,37.30
2018-03-31T09:22:45.780Z,35.20
2018-03-31T09:25:07.557Z,35.97
2018-03-31T09:27:34.605Z,36.97
2018-03-31T09:30:01.681Z,37.63
2018-03-31T09:32:28.754Z,38.00
2018-03-31T09:34:55.830Z,36.27
2018-03-31T09:37:22.879Z,35.83
2018-03-31T09:39:50.239Z,35.97
2018-03-31T09:42:17.302Z,34.90
2018-03-31T09:44:44.370Z,34.00
2018-03-31T09:47:11.417Z,35.63
2018-03-31T09:49:38.496Z,35.10
2018-03-31T09:52:05.560Z,37.50
2018-03-31T09:54:33.395Z,38.07
2018-03-31T09:57:00.449Z,37.03
2018-03-31T09:59:27.520Z,37.63
2018-03-31T10:01:55.353Z,36.47
2018-03-31T10:04:22.574Z,36.37
2018-03-31T10:06:49.631Z,36.90
2018-03-31T10:09:16.697Z,36.10
2018-03-31T10:11:44.483Z,35.47
2018-03-31T10:14:12.293Z,36.40
2018-03-31T10:16:40.280Z,34.17
2018-03-31T10:19:07.537Z,35.40
2018-03-31T10:21:34.596Z,38.00
2018-03-31T10:24:01.899Z,36.63
2018-03-31T10:26:30.804Z,36.43
2018-03-31T10:28:57.856Z,36.17
2018-03-31T10:31:25.786Z,37.63
2018-03-31T10:33:52.836Z,37.43
2018-03-31T10:36:20.047Z,38.10
2018-03-31T10:38:47.094Z,36.10
2018-03-31T10:41:14.279Z,40.60
2018-03-31T10:43:42.149Z,40.00
2018-03-31T10:46:09.988Z,41.90
2018-03-31T10:48:37.043Z,41.53
2018-03-31T10:51:04.118Z,41.67
2018-03-31T10:53:31.960Z,38.67
2018-03-31T10:55:59.032Z,38.50
2018-03-31T10:58:26.841Z,37.57
2018-03-31T11:00:53.996Z,34.77
2018-03-31T11:03:21.060Z,34.23
2018-03-31T11:05:48.106Z,36.80
2018-03-31T11:08:15.176Z,39.77
2018-03-31T11:10:43.761Z,37.87
2018-03-31T11:13:10.833Z,35.33
2018-03-31T11:15:37.914Z,41.57
2018-03-31T11:18:04.962Z,40.77
2018-03-31T11:20:32.098Z,41.40
2018-03-31T11:22:59.248Z,38.50
2018-03-31T11:25:26.296Z,40.30
2018-03-31T11:27:53.365Z,39.97
2018-03-31T11:30:20.477Z,36.50
2018-03-31T11:32:47.831Z,40.27
2018-03-31T11:35:14.934Z,40.13
2018-03-31T11:37:42.012Z,42.13
2018-03-31T11:40:09.175Z,41.30
2018-03-31T11:42:37.033Z,37.67
2018-03-31T11:45:04.857Z,38.17
2018-03-31T11:47:31.980Z,35.13
2018-03-31T11:49:59.089Z,38.50
2018-03-31T11:52:26.163Z,37.73
2018-03-31T11:54:53.230Z,33.90
2018-03-31T11:57:20.303Z,35.33
2018-03-31T11:59:47.374Z,38.87
2018-03-31T12:02:14.445Z,38.50
2018-03-31T12:04:41.501Z,36.03
2018-03-31T12:07:08.585Z,29.57
2018-03-31T12:09:35.646Z,37.93
2018-03-31T12:12:02.721Z,36.83
2018-03-31T12:14:29.773Z,32.07
2018-03-31T12:16:56.821Z,33.20
2018-03-31T12:19:24.012Z,38.70
2018-03-31T12:21:51.064Z,36.83
2018-03-31T12:24:18.291Z,36.03
2018-03-31T12:26:45.349Z,35.20
2018-03-31T12:29:12.430Z,35.80
2018-03-31T12:31:39.490Z,33.50
2018-03-31T12:34:06.570Z,29.17
2018-03-31T12:36:33.621Z,27.53
2018-03-31T12:39:00.699Z,19.23
2018-03-31T12:41:27.750Z,25.87
2018-03-31T12:43:54.797Z,28.57
2018-03-31T12:46:21.858Z,28.10
2018-03-31T12:48:48.932Z,25.07
2018-03-31T12:51:16.802Z,29.93
2018-03-31T12:53:43.880Z,28.20
2018-03-31T12:56:10.926Z,28.97
2018-03-31T12:58:37.992Z,27.43
2018-03-31T13:01:05.048Z,29.17
2018-03-31T13:03:32.127Z,30.23
2018-03-31T13:05:59.176Z,31.10
2018-03-31T13:08:26.306Z,26.37
2018-03-31T13:10:53.367Z,31.80
2018-03-31T13:13:20.421Z,30.80
2018-03-31T13:15:47.498Z,26.60
2018-03-31T13:18:15.314Z,30.27
2018-03-31T13:20:42.394Z,30.23
2018-03-31T13:23:09.433Z,25.73
2018-03-31T13:25:36.497Z,29.00
2018-03-31T13:28:04.350Z,30.20
2018-03-31T13:30:32.206Z,26.47
2018-03-31T13:32:59.257Z,27.17
2018-03-31T13:35:26.367Z,25.10
2018-03-31T13:37:53.385Z,27.23
2018-03-31T13:40:21.253Z,13.77
2018-03-31T13:42:49.085Z,26.70
2018-03-31T13:45:16.209Z,33.50
2018-03-31T13:47:43.559Z,21.57
2018-03-31T13:50:10.789Z,32.90
2018-03-31T13:52:37.852Z,31.23
2018-03-31T13:55:05.040Z,32.07
2018-03-31T13:57:32.242Z,33.43
2018-03-31T13:59:59.320Z,35.30
2018-03-31T14:02:26.382Z,27.97
2018-03-31T14:04:53.460Z,34.70
2018-03-31T14:07:20.515Z,35.10
2018-03-31T14:09:47.590Z,36.63
2018-03-31T14:12:14.677Z,29.50
2018-03-31T14:14:41.823Z,38.70
2018-03-31T14:17:08.921Z,40.47
2018-03-31T14:19:35.979Z,34.43
2018-03-31T14:22:03.239Z,40.53
2018-03-31T14:24:30.342Z,41.80
2018-03-31T14:26:58.207Z,35.40
2018-03-31T14:29:26.047Z,39.40
2018-03-31T14:31:53.178Z,42.10
2018-03-31T14:34:20.216Z,38.93
2018-03-31T14:36:47.292Z,43.70
2018-03-31T14:39:14.395Z,44.23
2018-03-31T14:41:41.457Z,30.50
2018-03-31T14:44:08.529Z,36.63
2018-03-31T14:46:35.666Z,51.33
2018-03-31T14:49:02.722Z,50.57
2018-03-31T14:51:29.824Z,53.60
2018-03-31T14:53:56.886Z,33.77
2018-03-31T14:56:23.958Z,58.93
2018-03-31T14:58:51.043Z,41.80
2018-03-31T15:01:18.179Z,56.30
2018-03-31T15:03:45.247Z,55.23
2018-03-31T15:06:12.291Z,54.27
2018-03-31T15:08:39.386Z,41.90
2018-03-31T15:11:06.473Z,57.43
2018-03-31T15:13:33.549Z,35.67
2018-03-31T15:16:01.432Z,42.43
2018-03-31T15:18:28.525Z,44.17
2018-03-31T15:20:55.580Z,53.00
2018-03-31T15:23:23.863Z,33.57
2018-03-31T15:25:52.114Z,51.63
2018-03-31T15:28:19.186Z,49.30
2018-03-31T15:30:46.257Z,47.77
2018-03-31T15:33:14.233Z,55.80
2018-03-31T15:35:42.053Z,50.80
2018-03-31T15:38:09.162Z,46.90
2018-03-31T15:40:36.274Z,59.00
2018-03-31T15:43:03.461Z,57.97
2018-03-31T15:45:31.295Z,44.63
2018-03-31T15:47:58.544Z,43.13
2018-03-31T15:50:25.684Z,56.83
2018-03-31T15:52:53.595Z,59.10
2018-03-31T15:55:20.668Z,58.30
2018-03-31T15:57:47.777Z,58.53
2018-03-31T16:00:15.612Z,44.27
2018-03-31T16:02:42.652Z,57.73
2018-03-31T16:05:09.710Z,57.30
2018-03-31T16:07:36.767Z,56.50
2018-03-31T16:10:03.841Z,54.60
2018-03-31T16:12:32.432Z,51.10
2018-03-31T16:14:59.506Z,53.83
2018-03-31T16:17:26.557Z,50.10
2018-03-31T16:19:53.812Z,48.23
2018-03-31T16:22:20.879Z,45.17
2018-03-31T16:24:48.751Z,34.10
2018-03-31T16:27:15.856Z,22.70
2018-03-31T16:29:42.936Z,45.30
2018-03-31T16:32:10.277Z,40.43
2018-03-31T16:34:37.407Z,42.97
2018-03-31T16:37:04.501Z,41.40
2018-03-31T16:39:32.151Z,43.37
2018-03-31T16:41:59.211Z,43.30
2018-03-31T16:44:26.312Z,38.97
2018-03-31T16:46:53.413Z,39.93
2018-03-31T16:49:20.442Z,37.87
2018-03-31T16:51:47.489Z,38.37
2018-03-31T16:54:14.577Z,37.37
2018-03-31T16:56:41.979Z,32.80
2018-03-31T16:59:09.024Z,42.90
2018-03-31T17:01:36.277Z,44.20
2018-03-31T17:04:03.375Z,45.30
2018-03-31T17:06:30.458Z,46.50
2018-03-31T17:08:57.514Z,46.50
2018-03-31T17:11:24.597Z,45.23
2018-03-31T17:13:51.677Z,42.53
2018-03-31T17:16:18.886Z,38.77
2018-03-31T17:18:46.169Z,34.80
2018-03-31T17:21:13.512Z,39.00
2018-03-31T17:23:40.751Z,30.27
2018-03-31T17:26:08.758Z,35.40
2018-03-31T17:28:35.897Z,34.13
2018-03-31T17:31:03.737Z,33.90
2018-03-31T17:33:30.796Z,36.23
2018-03-31T17:35:58.082Z,30.97
2018-03-31T17:38:25.894Z,29.27
2018-03-31T17:40:53.178Z,32.70
2018-03-31T17:43:20.226Z,27.50
2018-03-31T17:45:47.353Z,32.30
2018-03-31T17:48:14.393Z,31.63
2018-03-31T17:50:41.632Z,29.77
2018-03-31T17:53:08.716Z,26.27
2018-03-31T17:55:35.763Z,31.57
2018-03-31T17:58:02.846Z,32.27
2018-03-31T18:00:30.330Z,33.20
2018-03-31T18:02:59.559Z,32.00
2018-03-31T18:05:26.594Z,15.57
2018-03-31T18:07:53.968Z,24.70
2018-03-31T18:10:21.051Z,23.87
2018-03-31T18:12:48.441Z,25.13
2018-03-31T18:15:15.556Z,25.33
2018-03-31T18:17:42.661Z,19.50
2018-03-31T18:20:09.719Z,22.03
2018-03-31T18:22:37.577Z,24.87
2018-03-31T18:25:04.622Z,22.20
2018-03-31T18:27:31.701Z,26.80
2018-03-31T18:29:58.880Z,25.23
2018-03-31T18:32:25.949Z,25.33
2018-03-31T18:34:53.059Z,23.50
2018-03-31T18:37:20.238Z,23.80
2018-03-31T18:39:47.324Z,18.27
2018-03-31T18:42:14.557Z,14.10
2018-03-31T18:44:41.636Z,21.20
2018-03-31T18:47:08.719Z,19.00
2018-03-31T18:49:35.769Z,20.90
2018-03-31T18:52:02.864Z,10.97
2018-03-31T18:54:30.716Z,16.87
2018-03-31T18:56:57.810Z,13.70
2018-03-31T18:59:25.680Z,17.97
2018-03-31T19:01:53.519Z,13.20
2018-03-31T19:04:20.608Z,18.20
2018-03-31T19:06:47.664Z,16.20
2018-03-31T19:09:14.752Z,18.90
2018-03-31T19:11:41.804Z,16.13
2018-03-31T19:14:08.899Z,16.93
2018-03-31T19:16:41.564Z,16.93
2018-03-31T19:19:09.435Z,17.50
2018-03-31T19:21:37.256Z,19.43
2018-03-31T19:24:04.365Z,18.53
2018-03-31T19:26:31.414Z,19.03
2018-03-31T19:28:58.532Z,8.37
2018-03-31T19:31:25.585Z,20.67
2018-03-31T19:33:57.512Z,20.33
2018-03-31T19:36:24.600Z,11.60
2018-03-31T19:38:51.690Z,21.30
2018-03-31T19:41:18.755Z,22.87
2018-03-31T19:43:45.886Z,21.50
2018-03-31T19:46:12.954Z,21.50
2018-03-31T19:48:40.064Z,24.17
2018-03-31T19:51:07.194Z,26.63
2018-03-31T19:53:34.294Z,34.63
2018-03-31T19:56:01.368Z,27.40
2018-03-31T19:58:29.963Z,24.60
2018-03-31T20:00:57.792Z,22.23
2018-03-31T20:03:24.854Z,26.63
2018-03-31T20:05:51.999Z,26.07
2018-03-31T20:08:19.059Z,13.73
2018-03-31T20:10:46.168Z,17.60
2018-03-31T20:13:13.215Z,19.03
2018-03-31T20:15:40.299Z,17.00
2018-03-31T20:18:07.480Z,18.27
2018-03-31T20:20:34.585Z,17.20
2018-03-31T20:23:01.685Z,17.93
2018-03-31T20:25:28.776Z,20.13
2018-03-31T20:27:56.640Z,21.20
2018-03-31T20:30:23.731Z,21.40
2018-03-31T20:32:50.800Z,22.63
2018-03-31T20:35:17.966Z,20.73
2018-03-31T20:37:45.067Z,23.37
2018-03-31T20:40:12.138Z,22.87
2018-03-31T20:42:39.235Z,25.40
2018-03-31T20:45:06.316Z,20.53
2018-03-31T20:47:33.371Z,22.40
2018-03-31T20:50:01.461Z,21.00
2018-03-31T20:52:28.516Z,20.03
2018-03-31T20:54:55.567Z,20.13
2018-03-31T20:57:22.629Z,20.17
2018-03-31T20:59:49.693Z,20.90
2018-03-31T21:02:16.753Z,21.03
2018-03-31T21:04:43.811Z,24.30
2018-03-31T21:07:12.389Z,21.03
2018-03-31T21:09:39.441Z,21.70
2018-03-31T21:12:06.512Z,14.83
2018-03-31T21:14:34.330Z,21.10
2018-03-31T21:17:01.399Z,18.40
2018-03-31T21:19:28.466Z,16.50
2018-03-31T21:21:56.061Z,13.67
2018-03-31T21:24:23.104Z,20.07
2018-03-31T21:26:50.196Z,18.87
2018-03-31T21:29:17.234Z,16.53
2018-03-31T21:31:44.326Z,18.80
2018-03-31T21:34:12.132Z,20.07
2018-03-31T21:36:39.233Z,17.80
2018-03-31T21:39:07.059Z,22.20
2018-03-31T21:41:34.137Z,15.83
2018-03-31T21:44:01.172Z,20.17
2018-03-31T21:46:28.221Z,22.70
2018-03-31T21:48:55.341Z,16.37
2018-03-31T21:51:22.389Z,19.00
2018-03-31T21:53:49.592Z,18.07
2018-03-31T21:56:17.777Z,18.97
2018-03-31T21:58:44.872Z,17.37
2018-03-31T22:01:11.927Z,16.60
2018-03-31T22:03:38.997Z,20.83
2018-03-31T22:06:06.834Z,19.57
2018-03-31T22:08:33.899Z,18.27
2018-03-31T22:11:00.945Z,20.50
2018-03-31T22:13:33.888Z,14.23
2018-03-31T22:16:00.943Z,14.93
2018-03-31T22:18:28.005Z,14.37
2018-03-31T22:20:55.094Z,12.73
2018-03-31T22:23:23.722Z,14.87
2018-03-31T22:25:50.934Z,12.67
2018-03-31T22:28:18.014Z,13.40
2018-03-31T22:30:45.062Z,17.17
2018-03-31T22:33:12.160Z,15.13
2018-03-31T22:35:39.213Z,15.47
2018-03-31T22:38:06.508Z,9.50
2018-03-31T22:40:33.553Z,15.63
2018-03-31T22:43:00.675Z,19.20
2018-03-31T22:45:27.738Z,14.53
2018-03-31T22:47:54.772Z,17.30
2018-03-31T22:50:22.079Z,12.80
2018-03-31T22:52:49.139Z,16.13
2018-03-31T22:55:16.209Z,18.07
2018-03-31T22:57:43.249Z,8.73
2018-03-31T23:00:10.316Z,12.23
2018-03-31T23:02:38.134Z,16.00
2018-03-31T23:05:05.444Z,15.63
2018-03-31T23:07:33.254Z,13.30
2018-03-31T23:10:00.334Z,12.30
2018-03-31T23:12:27.374Z,10.97
2018-03-31T23:14:54.449Z,11.30
2018-03-31T23:17:22.369Z,11.10
2018-03-31T23:19:49.433Z,8.20
2018-03-31T23:22:16.482Z,11.80
2018-03-31T23:24:43.549Z,8.27
2018-03-31T23:27:10.606Z,9.70
2018-03-31T23:29:37.696Z,10.70
2018-03-31T23:32:04.749Z,10.03
2018-03-31T23:34:31.853Z,11.67
2018-03-31T23:36:58.926Z,8.20
2018-03-31T23:39:25.978Z,11.33
2018-03-31T23:41:54.581Z,11.50
2018-03-31T23:44:21.653Z,9.57
2018-03-31T23:46:48.706Z,12.07
2018-03-31T23:49:15.786Z,8.80
2018-03-31T23:51:42.856Z,11.07
2018-03-31T23:54:10.153Z,9.07
2018-03-31T23:56:37.244Z,10.07
2018-03-31T23:59:04.272Z,8.17
